YTFD weather

Tenterfield Airport
Tenterfield, New South Wales, Australia

Public forecast

Using degrees Celsius for public forecast. Weather courtesy of forecast.io.

METAR (pilot weather report)

Closest report is Casino Airport, 60.1 nm (111.3 km) E. Retrieved 2019/04/19 14:00 UTC (25 minutes ago):

YCAS 191400Z AUTO 20005KT //// // ////// 19/18 Q1023

TAF (pilot weather forecast)

Forecast is more than 12 hours old.

Closest forecast is RAAF Base Amberley, 91.0 nm (168.6 km) NNE. Retrieved 2019/04/18 18:00 UTC (20 hours ago):

TAF YAMB 181653Z 1818/1912 16005KT 9999 FEW025 SCT035 FM182300 14012KT 9999 -SHRA SCT035 BKN050 INTER 1900/1912 VRB15G25KT 5000 -SHRA BKN020 BKN035